Time;durP1;ratioP1;P1;durP2;ratioP2;P2;SDS_P1;SDS_P2;PMS_P1;PMS_P2;Temp;Humidity;BMP_temperature;BMP_pressure;BME280_temperature;BME280_humidity;BME280_pressure;Samples;Min_cycle;Max_cycle;Signal;HPM_P1;HPM_P2
2022/04/01 00:01:09;;;;;;;0.50;0.50;;;;;;;23.27;9.84;100502.56;5034093;28;20080;-75
2022/04/01 00:03:34;;;;;;;0.40;0.40;;;;;;;23.25;9.59;100499.31;5034001;28;20022;-76
2022/04/01 00:06:00;;;;;;;0.47;0.47;;;;;;;23.24;9.82;100503.91;5033971;28;20032;-75
2022/04/01 00:08:25;;;;;;;0.50;0.50;;;;;;;23.25;9.65;100505.56;5033986;28;20380;-75
2022/04/01 00:10:51;;;;;;;0.60;0.60;;;;;;;23.24;9.56;100511.28;5033694;28;20461;-75
2022/04/01 00:13:16;;;;;;;0.60;0.50;;;;;;;23.24;9.86;100514.00;5034121;28;20041;-75
2022/04/01 00:15:42;;;;;;;0.40;0.40;;;;;;;23.24;9.78;100516.75;5033514;28;20033;-75
2022/04/01 00:18:07;;;;;;;0.40;0.40;;;;;;;23.24;9.83;100514.00;5033928;28;20036;-75
2022/04/01 00:20:35;;;;;;;0.40;0.40;;;;;;;23.23;9.69;100518.66;5033691;28;20468;-75
2022/04/01 00:23:00;;;;;;;0.40;0.40;;;;;;;23.23;9.69;100518.66;5032858;28;20112;-75
2022/04/01 00:25:26;;;;;;;0.28;0.28;;;;;;;23.22;9.88;100514.28;5034122;28;20029;-75
2022/04/01 00:27:51;;;;;;;0.50;0.50;;;;;;;23.23;9.83;100520.53;5033743;28;20448;-74
2022/04/01 00:30:17;;;;;;;0.30;0.30;;;;;;;23.18;9.78;100515.91;5033373;28;20040;-75
2022/04/01 00:32:42;;;;;;;0.40;0.40;;;;;;;23.22;9.73;100527.09;5031870;28;20065;-75
2022/04/01 00:35:08;;;;;;;0.45;0.45;;;;;;;23.21;9.49;100526.25;5033318;28;20025;-75
2022/04/01 00:37:33;;;;;;;0.52;0.47;;;;;;;23.19;9.65;100533.09;5033248;28;20048;-76
2022/04/01 00:39:59;;;;;;;0.40;0.40;;;;;;;23.19;9.53;100523.00;5033674;28;20056;-74
2022/04/01 00:42:25;;;;;;;0.40;0.40;;;;;;;23.18;9.51;100526.81;5033278;28;20041;-75
2022/04/01 00:44:51;;;;;;;0.47;0.47;;;;;;;23.18;9.66;100528.72;5033476;28;20096;-74
2022/04/01 00:47:18;;;;;;;0.45;0.45;;;;;;;23.18;9.56;100532.28;5033142;28;20065;-75
2022/04/01 00:49:44;;;;;;;0.40;0.40;;;;;;;23.18;9.36;100524.09;5033200;28;20025;-76
2022/04/01 00:52:11;;;;;;;0.52;0.52;;;;;;;23.19;9.39;100527.63;5018762;28;20026;-75
2022/04/01 00:54:37;;;;;;;0.40;0.40;;;;;;;23.19;9.41;100527.63;5012540;28;20033;-76
2022/04/01 00:57:03;;;;;;;0.50;0.50;;;;;;;23.16;9.41;100533.63;5013644;28;20022;-75
2022/04/01 00:59:29;;;;;;;0.73;0.50;;;;;;;23.17;9.57;100535.25;5013379;28;20033;-75
2022/04/01 01:01:55;;;;;;;0.52;0.50;;;;;;;23.16;9.33;100533.63;5013246;28;20058;-75
2022/04/01 01:04:21;;;;;;;0.40;0.40;;;;;;;23.15;9.33;100537.44;5013192;28;20030;-76
2022/04/01 01:06:48;;;;;;;0.40;0.40;;;;;;;23.15;9.46;100540.16;5013291;28;20022;-75
2022/04/01 01:09:14;;;;;;;0.47;0.47;;;;;;;23.14;9.38;100538.53;5013594;28;20030;-76
2022/04/01 01:11:44;;;;;;;0.38;0.38;;;;;;;23.15;9.35;100545.63;5014255;28;20029;-75
2022/04/01 01:14:10;;;;;;;0.40;0.40;;;;;;;23.15;9.37;100542.91;5012339;28;20030;-75
2022/04/01 01:16:38;;;;;;;0.60;0.40;;;;;;;23.16;9.37;100544.53;5013407;28;20048;-75
2022/04/01 01:19:08;;;;;;;0.40;0.40;;;;;;;23.13;9.27;100545.03;5013370;28;20072;-75
2022/04/01 01:21:34;;;;;;;0.52;0.52;;;;;;;23.15;9.40;100551.06;5013430;28;20080;-75
2022/04/01 01:24:01;;;;;;;0.40;0.40;;;;;;;23.14;9.32;100546.69;5013138;28;20053;-74
2022/04/01 01:26:27;;;;;;;0.40;0.40;;;;;;;23.14;9.46;100550.22;5013109;28;20465;-75
2022/04/01 01:28:54;;;;;;;0.50;0.50;;;;;;;23.14;9.39;100552.16;5013069;28;20044;-75
2022/04/01 01:31:20;;;;;;;0.60;0.60;;;;;;;23.14;9.25;100546.69;5011956;28;20044;-75
2022/04/01 01:33:45;;;;;;;0.50;0.50;;;;;;;23.13;9.22;100550.50;5015430;28;20484;-75
2022/04/01 01:36:12;;;;;;;0.32;0.32;;;;;;;23.12;9.24;100548.88;5017113;28;20022;-75
2022/04/01 01:38:38;;;;;;;0.43;0.43;;;;;;;23.09;9.33;100550.22;5016585;28;20350;-75
2022/04/01 01:41:03;;;;;;;0.75;0.50;;;;;;;23.14;9.21;100554.88;5015723;28;20026;-74
2022/04/01 01:43:29;;;;;;;0.50;0.50;;;;;;;23.13;9.25;100558.69;5016764;28;20030;-75
2022/04/01 01:45:55;;;;;;;0.45;0.45;;;;;;;23.12;9.20;100562.50;5015381;28;20496;-75
2022/04/01 01:48:22;;;;;;;0.50;0.50;;;;;;;23.11;9.13;100571.75;5016855;28;20076;-75
2022/04/01 01:56:17;;;;;;;0.73;0.40;;;;;;;23.10;9.28;100561.97;5036453;28;20063;-75
2022/04/01 01:58:43;;;;;;;0.60;0.60;;;;;;;23.10;9.24;100561.97;5036504;28;20053;-75
2022/04/01 02:01:09;;;;;;;0.40;0.40;;;;;;;23.09;9.18;100565.75;5036109;28;20049;-75
2022/04/01 02:03:34;;;;;;;0.40;0.40;;;;;;;23.10;9.26;100567.41;5036205;28;20060;-75
2022/04/01 02:06:00;;;;;;;0.50;0.50;;;;;;;23.10;9.29;100573.69;5036245;28;20479;-75
2022/04/01 02:08:25;;;;;;;0.32;0.32;;;;;;;23.09;9.05;100566.56;5036320;28;20484;-75
2022/04/01 02:10:51;;;;;;;0.40;0.40;;;;;;;23.10;9.22;100567.41;5035936;28;20049;-75
2022/04/01 02:13:17;;;;;;;0.30;0.30;;;;;;;23.10;9.24;100567.41;5035812;28;20057;-75
2022/04/01 02:15:43;;;;;;;0.40;0.40;;;;;;;23.06;9.08;100564.41;5035854;28;20034;-75
2022/04/01 02:18:10;;;;;;;0.30;0.30;;;;;;;23.06;9.15;100567.94;5051471;28;20029;-74
2022/04/01 02:20:36;;;;;;;0.50;0.30;;;;;;;23.06;9.09;100567.94;5036007;28;20079;-74
2022/04/01 02:23:03;;;;;;;0.50;0.40;;;;;;;23.08;9.08;100570.41;5034744;28;20025;-75
2022/04/01 02:25:29;;;;;;;0.40;0.40;;;;;;;23.08;9.28;100564.94;5034677;28;20029;-75
2022/04/01 02:27:55;;;;;;;0.40;0.40;;;;;;;23.08;9.21;100569.56;5035514;28;20075;-75
2022/04/01 02:30:20;;;;;;;0.52;0.40;;;;;;;23.08;9.09;100566.84;5035879;28;20372;-75
2022/04/01 02:32:47;;;;;;;0.50;0.50;;;;;;;23.08;9.15;100566.84;5035287;28;20441;-76
2022/04/01 02:35:12;;;;;;;0.28;0.28;;;;;;;23.07;8.95;100563.31;5035770;28;20025;-75
2022/04/01 02:37:39;;;;;;;0.30;0.30;;;;;;;23.08;9.20;100562.22;5035631;28;20526;-75
2022/04/01 02:40:05;;;;;;;0.35;0.35;;;;;;;23.05;9.06;100560.84;5035263;28;20075;-75
2022/04/01 02:42:30;;;;;;;0.43;0.43;;;;;;;23.03;9.06;100557.53;5035165;28;20122;-75
2022/04/01 02:44:56;;;;;;;0.25;0.25;;;;;;;23.10;9.17;100561.97;5049588;28;20064;-75
2022/04/01 02:47:22;;;;;;;0.43;0.30;;;;;;;23.08;9.02;100561.38;5050967;28;20029;-75
2022/04/01 02:49:47;;;;;;;0.40;0.40;;;;;;;23.12;9.06;100559.78;5035202;28;20435;-75
2022/04/01 02:52:13;;;;;;;0.50;0.47;;;;;;;23.16;8.84;100560.88;5022440;28;20034;-75
2022/04/01 02:54:39;;;;;;;1.05;0.55;;;;;;;23.18;8.97;100561.41;5015233;28;20480;-76
2022/04/01 02:57:05;;;;;;;0.30;0.30;;;;;;;23.20;8.96;100559.28;5015397;28;20041;-75
2022/04/01 02:59:30;;;;;;;2.38;0.40;;;;;;;23.20;9.01;100557.34;5015087;28;20488;-76
2022/04/01 03:01:56;;;;;;;0.60;0.40;;;;;;;23.22;8.96;100563.34;5015083;28;20033;-75
2022/04/01 03:04:21;;;;;;;1.80;0.45;;;;;;;23.23;8.84;100564.16;5014925;28;20022;-75
2022/04/01 03:06:47;;;;;;;0.40;0.40;;;;;;;23.28;8.98;100569.63;5013790;28;20018;-75
2022/04/01 03:09:13;;;;;;;0.40;0.40;;;;;;;23.29;8.89;100575.94;5013681;28;20030;-75
2022/04/01 03:11:39;;;;;;;1.95;0.40;;;;;;;23.27;8.94;100573.47;5015265;28;20025;-76
2022/04/01 03:14:06;;;;;;;0.30;0.30;;;;;;;23.33;8.95;100583.28;5013834;28;20468;-76
2022/04/01 03:16:32;;;;;;;0.40;0.40;;;;;;;23.38;8.86;100579.75;5014839;28;20530;-76
2022/04/01 03:18:59;;;;;;;0.50;0.50;;;;;;;23.37;8.80;100578.94;5014813;28;20030;-76
2022/04/01 03:21:24;;;;;;;0.65;0.40;;;;;;;23.11;9.02;100536.31;5013852;28;20033;-76
2022/04/01 03:23:50;;;;;;;0.32;0.30;;;;;;;23.43;8.81;100586.03;5014680;28;20386;-76
2022/04/01 03:26:15;;;;;;;0.40;0.40;;;;;;;23.47;8.70;100582.78;5014637;28;20069;-76
2022/04/01 03:28:41;;;;;;;0.30;0.30;;;;;;;23.53;8.77;100598.09;5014562;28;20098;-75
2022/04/01 03:31:06;;;;;;;5.57;2.00;;;;;;;23.55;8.81;100595.91;5014830;28;20027;-75
2022/04/01 03:33:33;;;;;;;3.70;1.88;;;;;;;23.60;8.77;100604.09;5014383;28;20448;-75
2022/04/01 03:35:59;;;;;;;4.60;2.53;;;;;;;23.58;8.81;100592.63;5014588;28;20021;-76
2022/04/01 03:38:25;;;;;;;5.60;2.85;;;;;;;23.58;8.89;100596.19;5014833;28;20036;-76
2022/04/01 03:40:51;;;;;;;6.82;3.17;;;;;;;23.64;8.66;100605.19;5013516;28;20036;-76
2022/04/01 03:43:18;;;;;;;7.05;3.03;;;;;;;23.71;8.60;100605.75;5014323;28;20469;-76
2022/04/01 03:45:46;;;;;;;12.35;5.82;;;;;;;23.75;8.71;100615.03;5014247;28;20075;-75
2022/04/01 03:48:27;;;;;;;24.20;10.75;;;;;;;23.85;8.48;100621.63;5014661;28;20097;-75
2022/04/01 03:50:53;;;;;;;40.92;14.02;;;;;;;23.87;8.43;100619.44;5015409;28;20026;-75
2022/04/01 03:53:28;;;;;;;42.60;17.10;;;;;;;23.86;8.66;100620.56;5033796;28;20028;-75
2022/04/01 03:55:55;;;;;;;29.35;11.63;;;;;;;23.88;8.58;100616.44;5032835;28;20091;-75
2022/04/01 03:58:25;;;;;;;25.92;9.82;;;;;;;23.91;8.51;100615.91;5033547;28;20067;-75
2022/04/01 04:00:51;;;;;;;19.40;8.02;;;;;;;23.95;8.12;100616.19;5049104;28;20025;-77
2022/04/01 04:03:16;;;;;;;13.07;5.43;;;;;;;23.89;8.31;100622.75;5032600;28;20400;-76
2022/04/01 04:05:42;;;;;;;8.88;3.83;;;;;;;23.92;8.20;100627.63;5032015;28;20021;-76
2022/04/01 04:08:07;;;;;;;8.48;3.20;;;;;;;23.92;8.42;100627.63;5033653;28;20040;-75
2022/04/01 04:10:34;;;;;;;6.57;2.17;;;;;;;23.97;8.49;100630.38;5033762;28;20431;-76
2022/04/01 04:13:01;;;;;;;5.28;1.95;;;;;;;23.99;8.24;100634.50;5033830;28;20021;-76
2022/04/01 04:15:39;;;;;;;2.83;1.70;;;;;;;24.01;8.30;100634.22;5033225;28;20040;-76
2022/04/01 04:18:05;;;;;;;3.38;1.67;;;;;;;24.05;8.24;100624.38;5033892;28;20037;-76
2022/04/01 04:21:10;;;;;;;2.55;1.10;;;;;;;24.15;8.25;100629.03;5033166;28;20021;-76
2022/04/01 04:23:43;;;;;;;2.92;1.08;;;;;;;24.16;8.25;100634.22;5031090;28;20099;-76
2022/04/01 04:26:13;;;;;;;3.25;0.98;;;;;;;24.13;8.17;100629.31;5031214;28;20049;-76
2022/04/01 04:28:40;;;;;;;1.67;0.95;;;;;;;24.09;8.17;100627.38;5031421;28;20041;-75
2022/04/01 04:31:07;;;;;;;1.17;0.70;;;;;;;24.16;8.23;100650.63;5031527;28;20033;-76
2022/04/01 04:33:33;;;;;;;1.50;0.80;;;;;;;24.13;8.04;100645.69;5015450;28;20511;-75
2022/04/01 04:36:06;;;;;;;1.40;0.60;;;;;;;24.11;7.98;100642.41;5015756;28;20065;-77
2022/04/01 04:38:36;;;;;;;1.08;0.73;;;;;;;24.12;8.32;100641.31;5032277;28;20030;-74
2022/04/01 04:41:01;;;;;;;1.02;0.70;;;;;;;24.19;8.05;100644.59;5041612;28;20087;-74
2022/04/01 04:43:27;;;;;;;0.63;0.50;;;;;;;24.21;8.11;100654.44;5042377;28;20033;-75
2022/04/01 04:45:52;;;;;;;1.67;0.50;;;;;;;24.21;8.11;100655.25;5041774;28;20043;-75
2022/04/01 04:48:18;;;;;;;0.50;0.50;;;;;;;24.23;7.91;100660.44;5041595;28;20025;-76
2022/04/01 04:50:46;;;;;;;0.50;0.50;;;;;;;24.22;7.97;100658.81;5038231;28;20032;-76
2022/04/01 04:53:12;;;;;;;0.38;0.38;;;;;;;24.23;7.95;100654.97;5015923;28;20038;-76
2022/04/01 04:55:37;;;;;;;0.63;0.60;;;;;;;24.29;7.85;100670.28;5000790;28;20111;-75
2022/04/01 04:58:03;;;;;;;2.15;1.10;;;;;;;24.28;8.10;100660.44;5015262;28;20567;-79
2022/04/01 05:00:28;;;;;;;1.35;0.90;;;;;;;24.28;8.26;100668.63;5015928;28;20033;-76
2022/04/01 05:03:06;;;;;;;3.22;1.30;;;;;;;24.23;7.98;100672.16;5015492;28;20101;-77
2022/04/01 05:05:41;;;;;;;7.60;1.30;;;;;;;24.25;8.05;100674.63;5015010;28;20084;-75
2022/04/01 05:08:37;;;;;;;2.50;0.77;;;;;;;24.36;8.12;100681.75;5019318;28;20025;-78
2022/04/01 05:11:06;;;;;;;1.73;0.90;;;;;;;24.33;8.06;100677.63;5019062;28;20504;-79
2022/04/01 05:13:47;;;;;;;3.30;0.80;;;;;;;24.35;8.35;100682.81;5024070;28;20034;-78
2022/04/01 05:16:30;;;;;;;0.82;0.60;;;;;;;24.47;8.40;100688.84;5019295;28;20030;-78
2022/04/01 05:19:12;;;;;;;1.15;0.60;;;;;;;24.49;8.48;100686.66;5019489;28;20111;-78
2022/04/01 05:22:05;;;;;;;2.22;0.47;;;;;;;24.50;8.50;100692.94;5018240;28;20076;-78
2022/04/01 05:24:50;;;;;;;0.50;0.47;;;;;;;24.54;8.40;100694.91;5013363;28;20038;-78
2022/04/01 05:27:29;;;;;;;1.13;0.40;;;;;;;24.53;8.43;100693.22;5019509;28;20022;-78
2022/04/01 05:30:14;;;;;;;0.73;0.40;;;;;;;24.60;8.71;100698.44;5017329;28;20029;-77
2022/04/01 05:33:14;;;;;;;0.43;0.40;;;;;;;24.64;8.77;100698.72;5016840;28;20109;-76
2022/04/01 05:35:40;;;;;;;1.63;0.50;;;;;;;24.66;8.70;100696.50;5015825;28;20046;-76
2022/04/01 05:38:09;;;;;;;1.58;0.50;;;;;;;24.69;9.09;100701.44;5015453;28;20038;-76
2022/04/01 05:40:35;;;;;;;0.38;0.30;;;;;;;24.66;8.94;100701.97;5016634;28;20513;-76
2022/04/01 05:43:01;;;;;;;0.30;0.30;;;;;;;24.70;9.14;100700.34;5017308;28;20105;-77
2022/04/01 05:45:30;;;;;;;0.45;0.45;;;;;;;24.64;9.21;100702.25;5016636;28;20038;-78
2022/04/01 05:47:56;;;;;;;0.52;0.43;;;;;;;24.71;9.02;100704.72;5016535;28;20148;-78
2022/04/01 05:50:22;;;;;;;0.93;0.50;;;;;;;24.44;9.31;100705.78;5016066;28;20022;-76
2022/04/01 05:52:48;;;;;;;1.52;0.30;;;;;;;24.63;9.13;100708.00;5031116;28;20017;-76
2022/04/01 05:55:17;;;;;;;0.50;0.40;;;;;;;24.76;9.16;100701.16;5036263;28;20418;-78
2022/04/01 05:57:43;;;;;;;2.05;0.40;;;;;;;24.83;9.38;100710.69;5036159;28;20080;-75
2022/04/01 06:00:12;;;;;;;2.42;0.55;;;;;;;24.78;9.16;100709.91;5035713;28;20030;-77
2022/04/01 06:03:05;;;;;;;2.17;0.60;;;;;;;24.89;9.40;100717.81;5035867;28;20091;-76
2022/04/01 06:05:34;;;;;;;1.00;0.68;;;;;;;24.88;9.40;100710.69;5035711;28;20028;-76
2022/04/01 06:08:38;;;;;;;8.18;2.88;;;;;;;25.01;9.61;100713.94;5050920;28;20032;-76
2022/04/01 06:11:09;;;;;;;7.65;3.35;;;;;;;25.03;9.52;100720.00;5035852;28;20133;-77
2022/04/01 06:13:47;;;;;;;37.72;15.32;;;;;;;24.89;9.72;100712.34;5035787;28;20101;-75
2022/04/01 06:16:45;;;;;;;27.95;11.50;;;;;;;25.05;10.12;100709.59;5035825;28;20032;-78
2022/04/01 06:19:25;;;;;;;21.10;8.05;;;;;;;25.11;10.02;100717.50;5034284;28;20025;-76
2022/04/01 06:22:08;;;;;;;13.98;5.78;;;;;;;25.08;10.22;100722.72;5035116;28;20083;-76
2022/04/01 06:25:01;;;;;;;15.50;7.60;;;;;;;25.10;9.79;100712.31;5035510;28;20108;-75
2022/04/01 06:27:34;;;;;;;11.10;4.70;;;;;;;25.16;9.93;100716.66;5035234;28;20042;-76
2022/04/01 06:30:09;;;;;;;9.85;3.63;;;;;;;25.19;9.81;100718.03;5050952;28;20029;-75
2022/04/01 06:32:50;;;;;;;7.60;2.97;;;;;;;25.23;10.26;100728.16;5035418;28;20052;-74
2022/04/01 06:35:23;;;;;;;5.75;2.67;;;;;;;25.23;10.08;100722.69;5034914;28;20064;-75
2022/04/01 06:37:58;;;;;;;5.57;2.63;;;;;;;25.24;10.04;100728.97;5034156;28;20076;-75
2022/04/01 06:40:25;;;;;;;3.88;1.92;;;;;;;25.25;10.26;100725.97;5035159;28;20087;-79
2022/04/01 06:42:52;;;;;;;4.22;1.95;;;;;;;25.13;10.25;100728.16;5034263;28;20041;-76
2022/04/01 06:45:18;;;;;;;2.97;1.60;;;;;;;25.34;10.51;100728.16;5035640;28;20049;-77
2022/04/01 06:47:45;;;;;;;2.97;1.42;;;;;;;25.30;10.39;100728.69;5037719;28;20025;-75
2022/04/01 06:50:12;;;;;;;3.47;1.42;;;;;;;25.32;10.04;100713.91;5038739;28;20048;-75
2022/04/01 06:52:37;;;;;;;1.40;0.90;;;;;;;25.35;10.13;100724.31;5022712;28;20041;-75
2022/04/01 06:55:06;;;;;;;2.75;1.35;;;;;;;25.53;9.94;100723.69;5015605;28;20030;-76
2022/04/01 06:57:31;;;;;;;11.82;4.80;;;;;;;25.59;10.05;100722.56;5015163;28;20054;-76
2022/04/01 06:59:57;;;;;;;5.53;2.95;;;;;;;25.56;10.09;100719.56;5014853;28;20469;-76
2022/04/01 07:02:22;;;;;;;4.43;2.05;;;;;;;25.63;10.09;100726.38;5014997;28;20038;-76
2022/04/01 07:04:47;;;;;;;5.88;1.70;;;;;;;25.56;9.93;100730.50;5014819;28;20033;-75
2022/04/01 07:07:13;;;;;;;2.47;1.30;;;;;;;25.61;9.89;100734.06;5015570;28;20034;-75
2022/04/01 07:09:38;;;;;;;2.58;1.40;;;;;;;25.59;10.02;100741.72;5015747;28;20461;-75
2022/04/01 07:12:04;;;;;;;2.60;1.38;;;;;;;25.51;10.29;100714.13;5014846;28;20045;-76
2022/04/01 07:14:31;;;;;;;1.95;1.20;;;;;;;25.57;10.13;100738.44;5013658;28;20030;-76
2022/04/01 07:16:57;;;;;;;4.97;2.55;;;;;;;25.66;10.13;100731.31;5014662;28;20022;-77
2022/04/01 07:19:23;;;;;;;4.85;2.10;;;;;;;25.62;10.17;100727.47;5014509;28;20045;-76
2022/04/01 07:21:48;;;;;;;3.55;2.22;;;;;;;25.62;10.34;100730.22;5014517;28;20025;-77
2022/04/01 07:24:14;;;;;;;4.43;2.30;;;;;;;25.64;10.02;100728.00;5014348;28;20026;-77
2022/04/01 07:26:40;;;;;;;2.92;1.90;;;;;;;25.66;10.15;100725.84;5015094;28;20088;-77
2022/04/01 07:29:06;;;;;;;3.15;1.60;;;;;;;25.67;10.26;100732.94;5014008;28;20054;-77
2022/04/01 07:34:21;;;;;;;1.85;1.20;;;;;;;25.70;9.98;100722.50;5012928;28;20385;-75
2022/04/01 07:36:48;;;;;;;2.17;1.30;;;;;;;25.75;10.11;100727.97;5015086;28;20101;-75
2022/04/01 07:39:15;;;;;;;2.28;1.23;;;;;;;25.66;10.26;100725.84;5012566;28;20496;-74
2022/04/01 07:41:41;;;;;;;3.70;1.15;;;;;;;25.80;10.43;100730.69;5013706;28;20049;-75
2022/04/01 07:44:07;;;;;;;5.78;2.50;;;;;;;25.83;10.51;100736.41;5013637;28;20026;-75
2022/04/01 07:46:32;;;;;;;4.65;2.00;;;;;;;25.83;10.52;100730.13;5013433;28;20033;-76
2022/04/01 07:48:58;;;;;;;2.65;1.50;;;;;;;25.86;10.37;100730.38;5014072;28;20097;-77
2022/04/01 07:51:24;;;;;;;2.80;1.50;;;;;;;25.90;10.18;100736.09;5015008;28;20030;-77
2022/04/01 07:53:49;;;;;;;3.00;1.38;;;;;;;25.91;10.61;100743.22;5033726;28;20476;-76
2022/04/01 07:56:15;;;;;;;2.88;1.55;;;;;;;25.95;10.20;100743.50;5033884;28;20384;-78
2022/04/01 07:58:40;;;;;;;2.17;1.10;;;;;;;25.96;10.23;100735.03;5033510;28;20029;-76
2022/04/01 08:01:06;;;;;;;4.07;1.17;;;;;;;25.92;10.00;100738.56;5033346;28;20022;-77
2022/04/01 08:03:31;;;;;;;2.83;0.80;;;;;;;25.95;9.93;100749.00;5033394;28;20024;-75
2022/04/01 08:05:58;;;;;;;1.27;0.82;;;;;;;25.96;10.13;100743.22;5033217;28;20439;-77
2022/04/01 08:08:23;;;;;;;1.70;0.80;;;;;;;25.97;9.96;100738.56;5033477;28;20029;-76
2022/04/01 08:10:51;;;;;;;1.30;0.88;;;;;;;25.99;9.81;100748.16;5033339;28;20025;-78
2022/04/01 08:13:16;;;;;;;0.55;0.50;;;;;;;25.97;9.96;100744.84;5032153;28;20033;-77
2022/04/01 08:15:42;;;;;;;0.95;0.63;;;;;;;26.02;9.84;100749.50;5033352;28;20428;-75
2022/04/01 08:18:07;;;;;;;1.50;0.45;;;;;;;26.07;9.56;100751.38;5033344;28;20376;-78
2022/04/01 08:20:34;;;;;;;1.60;0.80;;;;;;;26.05;9.78;100752.47;5033236;28;20048;-76
2022/04/01 08:23:00;;;;;;;2.28;1.00;;;;;;;26.07;9.57;100749.47;5032832;28;20080;-76
2022/04/01 08:25:25;;;;;;;1.83;0.50;;;;;;;26.12;9.50;100759.56;5032736;28;20427;-76
2022/04/01 08:27:51;;;;;;;1.08;0.70;;;;;;;26.15;9.57;100759.81;5033063;28;20071;-76
2022/04/01 08:30:16;;;;;;;0.63;0.47;;;;;;;26.10;9.46;100759.84;5032843;28;20029;-76
2022/04/01 08:32:42;;;;;;;0.40;0.40;;;;;;;26.10;9.39;100759.84;5032673;28;20038;-76
2022/04/01 08:35:07;;;;;;;0.57;0.40;;;;;;;26.10;9.48;100754.38;5033127;28;20037;-75
2022/04/01 08:37:33;;;;;;;0.40;0.40;;;;;;;26.16;9.24;100760.63;5032042;28;20379;-76
2022/04/01 08:39:58;;;;;;;2.53;0.80;;;;;;;26.13;9.58;100761.19;5032878;28;20033;-76
2022/04/01 08:42:24;;;;;;;0.57;0.50;;;;;;;26.13;9.45;100755.72;5032246;28;20025;-76
2022/04/01 08:44:50;;;;;;;0.70;0.65;;;;;;;26.16;9.35;100758.72;5032652;28;20064;-76
2022/04/01 08:47:15;;;;;;;1.05;0.50;;;;;;;26.16;9.36;100755.16;5032836;28;20521;-76
2022/04/01 08:49:41;;;;;;;0.40;0.40;;;;;;;26.16;9.45;100768.84;5032936;28;20387;-76
2022/04/01 08:52:06;;;;;;;0.50;0.50;;;;;;;26.13;9.73;100752.97;5026383;28;20380;-76
2022/04/01 08:54:33;;;;;;;0.40;0.40;;;;;;;26.12;9.61;100765.06;5011449;28;20175;-76
2022/04/01 08:56:59;;;;;;;0.30;0.30;;;;;;;25.93;9.95;100762.13;5013156;28;20029;-76
2022/04/01 08:59:28;;;;;;;0.43;0.40;;;;;;;26.08;9.52;100769.44;5011973;28;20060;-76
2022/04/01 09:02:01;;;;;;;0.82;0.40;;;;;;;26.09;9.45;100765.63;5011516;28;20037;-77
2022/04/01 09:04:26;;;;;;;0.20;0.20;;;;;;;26.11;9.45;100768.88;5011426;28;20022;-76
2022/04/01 09:06:52;;;;;;;0.40;0.40;;;;;;;26.18;9.58;100775.69;5012476;28;20037;-75
2022/04/01 09:09:24;;;;;;;0.98;0.40;;;;;;;26.12;9.45;100776.81;5012895;28;20022;-74
2022/04/01 09:12:06;;;;;;;0.40;0.40;;;;;;;26.24;9.48;100774.56;5011951;28;20101;-76
2022/04/01 09:14:32;;;;;;;0.40;0.40;;;;;;;26.16;9.49;100777.06;5011790;28;20038;-76
2022/04/01 09:16:59;;;;;;;0.77;0.40;;;;;;;26.27;9.48;100775.91;5012998;28;20457;-76
2022/04/01 09:19:29;;;;;;;0.60;0.50;;;;;;;26.27;9.38;100783.31;5011413;28;20026;-76
2022/04/01 09:21:54;;;;;;;0.85;0.40;;;;;;;26.33;9.20;100782.19;5011803;28;20045;-74
2022/04/01 09:24:20;;;;;;;0.77;0.50;;;;;;;26.36;9.23;100784.34;5012719;28;20380;-76
2022/04/01 09:26:47;;;;;;;0.30;0.30;;;;;;;26.41;9.75;100781.59;4994945;28;20022;-76
2022/04/01 09:29:12;;;;;;;1.58;0.43;;;;;;;26.39;9.30;100770.09;5013865;28;20469;-77
2022/04/01 09:31:39;;;;;;;0.30;0.30;;;;;;;26.38;9.04;100782.97;5013172;28;20103;-78
2022/04/01 09:34:10;;;;;;;0.57;0.50;;;;;;;26.32;8.97;100781.38;5012722;28;20100;-77
2022/04/01 09:36:38;;;;;;;0.93;0.60;;;;;;;26.36;8.95;100781.63;5012452;28;20034;-76
2022/04/01 09:39:14;;;;;;;2.78;1.10;;;;;;;26.33;9.21;100782.19;5012581;28;20034;-77
2022/04/01 09:41:58;;;;;;;0.90;0.60;;;;;;;26.35;9.15;100783.50;5012711;28;20021;-76
2022/04/01 09:44:28;;;;;;;1.88;0.60;;;;;;;26.39;9.04;100781.06;5011010;28;20034;-76
2022/04/01 09:47:03;;;;;;;1.05;0.70;;;;;;;26.41;9.36;100776.91;5012469;28;20045;-76
2022/04/01 09:49:39;;;;;;;0.93;0.60;;;;;;;26.44;9.33;100778.28;5012643;28;20018;-76
2022/04/01 09:52:36;;;;;;;0.90;0.60;;;;;;;26.41;9.39;100774.19;5017592;28;20048;-76
2022/04/01 09:55:01;;;;;;;0.40;0.40;;;;;;;26.48;9.31;100784.00;5034032;28;20046;-77
2022/04/01 09:57:28;;;;;;;1.00;0.43;;;;;;;26.42;9.21;100786.78;5036255;28;20087;-76
2022/04/01 09:59:54;;;;;;;0.63;0.50;;;;;;;26.38;9.18;100787.63;5036085;28;20389;-77
2022/04/01 10:02:20;;;;;;;0.47;0.45;;;;;;;26.41;9.19;100781.59;5036386;28;20029;-74
2022/04/01 10:04:45;;;;;;;19.30;6.90;;;;;;;26.45;9.35;100779.09;5051553;28;20370;-77
2022/04/01 10:07:11;;;;;;;4.65;1.98;;;;;;;26.41;9.20;100778.84;5035670;28;20032;-75
2022/04/01 10:09:39;;;;;;;2.55;1.30;;;;;;;26.43;8.91;100782.94;5035588;28;20030;-75
2022/04/01 10:12:10;;;;;;;1.42;1.00;;;;;;;26.40;8.78;100788.97;5051102;28;20026;-76
2022/04/01 10:14:38;;;;;;;1.17;0.70;;;;;;;26.37;8.95;100786.81;5051071;28;20045;-77
2022/04/01 10:17:04;;;;;;;1.13;0.85;;;;;;;26.45;9.35;100777.16;5050961;28;20037;-76
2022/04/01 10:19:30;;;;;;;7.22;3.08;;;;;;;26.46;9.20;100777.97;5035484;28;20041;-76
2022/04/01 10:21:56;;;;;;;8.90;2.90;;;;;;;26.43;8.89;100771.97;5037787;28;20057;-76
2022/04/01 10:24:27;;;;;;;9.43;4.60;;;;;;;26.36;8.85;100785.16;5036831;28;20461;-76
2022/04/01 10:27:13;;;;;;;13.30;6.00;;;;;;;26.39;8.96;100768.16;5036324;28;20025;-75
2022/04/01 10:29:38;;;;;;;8.32;5.45;;;;;;;26.38;8.88;100776.66;5035250;28;20065;-75
2022/04/01 10:32:26;;;;;;;11.13;5.45;;;;;;;26.45;9.23;100768.94;5035709;28;20033;-74
2022/04/01 10:34:53;;;;;;;7.78;4.03;;;;;;;26.45;9.19;100770.88;5035208;28;20042;-77
2022/04/01 10:37:20;;;;;;;5.10;2.95;;;;;;;26.39;9.35;100768.16;5034216;28;20033;-73
2022/04/01 10:40:09;;;;;;;6.38;3.05;;;;;;;26.40;9.09;100767.03;5034917;28;20022;-74
2022/04/01 10:42:37;;;;;;;5.00;2.38;;;;;;;26.34;8.96;100778.34;5012958;28;20559;-74
2022/04/01 10:45:17;;;;;;;3.95;2.13;;;;;;;26.45;9.06;100776.34;5012859;28;20038;-76
2022/04/01 10:53:46;;;;;;;1.70;1.17;;;;;;;26.42;8.94;100756.66;4997792;28;20061;-75
2022/04/01 10:56:25;;;;;;;19.55;7.32;;;;;;;26.43;8.84;100769.22;4992671;28;20190;-77
2022/04/01 10:59:01;;;;;;;10.15;3.67;;;;;;;26.45;8.85;100763.47;4992761;28;20030;-76
2022/04/01 11:01:26;;;;;;;4.35;1.80;;;;;;;26.46;9.13;100764.28;4993041;28;20114;-76
2022/04/01 11:03:52;;;;;;;3.00;1.58;;;;;;;26.43;8.78;100763.75;4993009;28;20030;-77
2022/04/01 11:06:23;;;;;;;3.40;1.67;;;;;;;26.46;8.72;100758.78;4992397;28;20394;-78
2022/04/01 11:08:52;;;;;;;5.68;1.52;;;;;;;26.45;8.42;100757.16;4992784;28;20063;-77
2022/04/01 11:11:18;;;;;;;3.60;1.63;;;;;;;26.45;8.55;100759.91;4992856;28;20093;-77
2022/04/01 11:13:45;;;;;;;2.88;1.50;;;;;;;26.44;8.30;100761.84;4992957;28;20512;-77
2022/04/01 11:16:12;;;;;;;1.85;1.15;;;;;;;26.46;8.21;100765.09;4992778;28;20034;-77
2022/04/01 11:19:15;;;;;;;2.17;1.15;;;;;;;26.46;8.18;100764.28;4994332;28;20140;-78
2022/04/01 11:21:42;;;;;;;1.55;0.90;;;;;;;26.40;7.86;100758.81;5014974;28;20126;-78
2022/04/01 11:24:33;;;;;;;2.60;0.90;;;;;;;26.46;8.04;100758.78;5013582;28;20385;-76
2022/04/01 11:27:08;;;;;;;1.20;0.85;;;;;;;26.43;7.88;100752.78;5017707;28;20033;-77
2022/04/01 11:29:33;;;;;;;2.08;0.77;;;;;;;26.39;7.96;100749.00;5014802;28;20394;-77
2022/04/01 11:32:01;;;;;;;2.00;0.60;;;;;;;26.39;7.94;100751.72;5014485;28;20037;-76
2022/04/01 11:34:27;;;;;;;1.15;0.50;;;;;;;26.43;7.95;100750.03;5014087;28;20077;-76
2022/04/01 11:37:00;;;;;;;0.70;0.57;;;;;;;26.36;7.83;100737.78;5013152;28;20026;-77
2022/04/01 11:39:26;;;;;;;0.95;0.55;;;;;;;26.37;7.88;100742.97;5013499;28;20069;-77
2022/04/01 11:41:54;;;;;;;1.17;0.70;;;;;;;26.32;7.65;100745.75;5014626;28;20484;-77
2022/04/01 11:44:21;;;;;;;2.47;0.55;;;;;;;26.37;7.50;100742.97;5015462;28;20157;-78
2022/04/01 11:46:54;;;;;;;0.40;0.40;;;;;;;26.37;7.61;100745.72;5014030;28;20052;-77
2022/04/01 11:49:19;;;;;;;0.73;0.50;;;;;;;26.37;7.63;100745.72;5013727;28;20025;-76
2022/04/01 11:51:44;;;;;;;1.00;0.60;;;;;;;26.42;7.82;100753.06;5013160;28;20176;-80
2022/04/01 11:54:10;;;;;;;0.90;0.47;;;;;;;26.46;7.62;100747.81;5034201;28;20523;-77